TimePST,TemperatureF,Dew PointF,Humidity,Sea Level PressureIn,VisibilityMPH,Wind Direction,Wind SpeedMPH,Gust SpeedMPH,PrecipitationIn,Events,Conditions,WindDirDegrees,DateUTC
12:53 AM,55.0,54.0,96,30.06,7.0,SSE,10.4,-,N/A,,Clear,150,2012-11-29 08:53:00
1:53 AM,55.0,54.0,96,30.07,7.0,SE,11.5,-,N/A,,Clear,140,2012-11-29 09:53:00
2:53 AM,55.0,53.1,93,30.06,6.0,SE,9.2,-,N/A,,Clear,130,2012-11-29 10:53:00
3:53 AM,55.0,53.1,93,30.05,10.0,SE,9.2,-,N/A,,Overcast,130,2012-11-29 11:53:00
4:53 AM,55.9,53.1,90,30.04,10.0,SE,10.4,-,N/A,,Mostly Cloudy,130,2012-11-29 12:53:00
5:53 AM,55.9,52.0,87,30.04,10.0,SSE,11.5,-,N/A,,Mostly Cloudy,150,2012-11-29 13:53:00
6:53 AM,55.9,51.1,84,30.04,10.0,SE,13.8,-,N/A,,Partly Cloudy,140,2012-11-29 14:53:00
7:53 AM,57.0,51.1,81,30.04,10.0,SSE,12.7,-,N/A,,Clear,150,2012-11-29 15:53:00
8:53 AM,57.9,52.0,81,30.04,10.0,SSE,15.0,-,N/A,,Clear,150,2012-11-29 16:53:00
9:53 AM,60.1,54.0,80,30.03,10.0,SSE,15.0,24.2,N/A,,Mostly Cloudy,150,2012-11-29 17:53:00
10:53 AM,61.0,54.0,78,30.03,10.0,SSE,13.8,-,N/A,,Mostly Cloudy,160,2012-11-29 18:53:00
11:53 AM,61.0,53.1,75,30.01,10.0,SSE,17.3,-,N/A,,Mostly Cloudy,160,2012-11-29 19:53:00
12:53 PM,62.1,52.0,70,29.98,10.0,SSE,18.4,25.3,N/A,,Overcast,150,2012-11-29 20:53:00
1:53 PM,62.1,51.1,67,29.96,10.0,South,19.6,26.5,N/A,,Overcast,170,2012-11-29 21:53:00
2:53 PM,61.0,53.1,75,29.92,9.0,SSE,19.6,-,0.00,Rain,Light Rain,160,2012-11-29 22:53:00
3:53 PM,57.9,55.0,90,29.93,4.0,South,18.4,34.5,0.00,,Overcast,170,2012-11-29 23:53:00
4:53 PM,57.9,55.9,93,29.93,7.0,South,31.1,43.7,0.01,Rain,Light Rain,170,2012-11-30 00:53:00
5:53 PM,60.1,-9999,N/A,29.91,10.0,SSE,23.0,34.5,0.03,,Overcast,160,2012-11-30 01:53:00
6:53 PM,57.9,-9999,N/A,29.91,4.0,SSE,16.1,-,0.04,Rain,Light Rain,160,2012-11-30 02:53:00
7:53 PM,59.0,-9999,N/A,29.88,10.0,SSE,18.4,27.6,0.03,,Overcast,160,2012-11-30 03:53:00
8:53 PM,59.0,-9999,N/A,29.86,7.0,SSE,16.1,23.0,0.01,Rain,Light Rain,160,2012-11-30 04:53:00
9:53 PM,62.1,-9999,N/A,29.86,5.0,South,24.2,33.4,0.04,Rain,Rain,170,2012-11-30 05:53:00
10:53 PM,59.0,-9999,N/A,29.87,8.0,SSE,24.2,29.9,0.09,Rain,Light Rain,160,2012-11-30 06:53:00
11:53 PM,59.0,-9999,N/A,29.82,10.0,SSE,24.2,31.1,0.05,Rain,Light Rain,150,2012-11-30 07:53:00